This is the latest recevied weather packets stored in our database for station/object KK6LVQ-13. If no packets are shown the sender has not sent any weather packets the latest 10 day(s).
| Time | Temp. | Humidity | Pressure | Rain* | Wind** | Luminosity | Snow |
|---|---|---|---|---|---|---|---|
| 1777323332 | 16.11° C | 60% | 1022.1 hPa | 0 mm | - | 426 W/m² | - |
| 1777323030 | 15° C | 63% | 1022.1 hPa | 0 mm | - | 1063 W/m² | - |
| 1777322727 | 15° C | 66% | 1022.2 hPa | 0 mm | - | 386 W/m² | - |
| 1777322426 | 14.44° C | 66% | 1022.4 hPa | 0 mm | - | 322 W/m² | - |
| 1777322121 | 14.44° C | 67% | 1022.3 hPa | 0 mm | - | 352 W/m² | - |
| 1777321819 | 15° C | 65% | 1022.3 hPa | 0 mm | - | 362 W/m² | - |
| 1777321515 | 15° C | 64% | 1022.2 hPa | 0 mm | - | 470 W/m² | - |
| 1777321213 | 15° C | 65% | 1022.3 hPa | 0 mm | - | 659 W/m² | - |
| 1777320910 | 15.56° C | 65% | 1022.2 hPa | 0 mm | - | 344 W/m² | - |
| 1777320608 | 15.56° C | 63% | 1022.4 hPa | 0 mm | - | 536 W/m² | - |
| 1777320304 | 15.56° C | 64% | 1022.6 hPa | 0 mm | - | 492 W/m² | - |
| 1777320000 | 14.44° C | 68% | 1022.6 hPa | 0 mm | - | 421 W/m² | - |
| 1777319698 | 14.44° C | 66% | 1022.7 hPa | 0 mm | - | 892 W/m² | - |
| 1777319395 | 14.44° C | 69% | 1022.6 hPa | 0 mm | - | 1113 W/m² | - |
| 1777319092 | 13.33° C | 71% | 1022.7 hPa | 0 mm | - | 975 W/m² | - |
| 1777318789 | 13.33° C | 71% | 1022.8 hPa | 0 mm | - | 267 W/m² | - |
| 1777318485 | 13.33° C | 72% | 1022.8 hPa | 0 mm | - | 244 W/m² | - |
| 1777318182 | 13.33° C | 72% | 1023 hPa | 0 mm | - | 281 W/m² | - |
| 1777317879 | 13.89° C | 71% | 1022.8 hPa | 0 mm | - | 264 W/m² | - |
| 1777317576 | 15° C | 68% | 1022.6 hPa | 0 mm | - | 611 W/m² | - |
* Rain latest hour (hover to see other rain measurements)
** Current wind speed in m/s (hover to see current wind gust speed)